Sugar Land Regional Airport
KSGR : rendu visible

Aérodrome :











RETROUVEZ-NOUS SUR...

 
LOGIN :

S'inscrire | Disclaimer

   EN    FR    IT 

 









Légende :    VFR   VFR Marginal   IFR   IFR Intensif   IFR Très Intensif
Visi : 
Plafond : 
>= 8 km
>= 3000ft
5 à 8 km
1000 à 3000 ft
1500m à 5 km
500 à 1000 ft
800 à 1500m
200 à 500 ft
< 800m
< 200 ft
Symboles :   Orages  Brouillard  Fortes neiges  Fortes précipitations  Vent > 20 kt






- Altitude de l'aérodrome : 82 ft


KSGR - Sugar Land Regional

DERNIER METAR :
  • 300153Z 05006KT 10SM CLR 28/18 A3002 RMK AO2 SLP168 T02780178

METARs EXPIRÉS :
  • 300053Z 36008KT 10SM BKN055 28/19 A3001 RMK AO2 SLP165 T02830189
  • 292353Z 35009KT 10SM BKN060 29/19 A3000 RMK AO2 SLP158 T02940194 10311 20289 55007

TAF KSGR
Valide du 30 à 00h jusqu'au 31 à 00h UTC


292336Z 3000/3024 34007KT P6SM VCSH SCT060 SCT070 BKN080
FM300300 02005KT P6SM FEW045 FEW250
FM301500 05009KT P6SM FEW045 SCT250
FM301800 08009KT P6SM VCSH SCT045 SCT070 SCT250
FM302200 09008KT P6SM VCTS BKN040CB BKN250
FIR KZHU / Amérique du Nord



MET'MAP, la Météo Aéronautique d'un coup d'oeil ! - Copyright ORBIFLY Décembre 2007 - Disclaimer

ORBIFLY MET'MAP TEAM :

Programmation & Développement : Alexandra Zaïnal
Sur une idée originale de : Baudouin d'Aumeries
Assistance à la programmation : Marc-Olivier Méhu
Soutien technique & logistique : Manuel Goepfert

Contact : metmap@orbifly.com




SOURCES & CREDITS :

   NOAA       Earth
Advisory